Antonito, Colorado
Current Conditions -  °F | °C
As of 10:52 PM on Sunday 23 Nov 2014 (Local Time) from KALS Reporting Station
Clear Clear  
Wind Chill:   Ceiling: Unl
Heat Index: 13°   Visibility: 10mi
Dew Point:   Wind: 7mph
Humidity: 62%   Direction: 10°N
Pressure: 29.99"   Gusts: NA
Location:  37.08°N, 106.01°W
Report Text: KALS 240552Z AUTO 01006KT 10SM CLR M11/M17 A2999 RMK AO2 SLP174 T11061167 11017 21106 52009
Loading
Personal Weather Stations






























Interactive Weather Map New forecast layout! Learn more

10-Day Weather Forecast

Advertisements
Track Severe Weather on mobile